Time;durP1;ratioP1;P1;durP2;ratioP2;P2;SDS_P1;SDS_P2;PMS_P1;PMS_P2;Temp;Humidity;BMP_temperature;BMP_pressure;BME280_temperature;BME280_humidity;BME280_pressure;Samples;Min_cycle;Max_cycle;Signal;HPM_P1;HPM_P2
2022/07/12 00:01:18;;;;;;;4.13;3.42;;;;;;;;;;5016023;28;20037;-80
2022/07/12 00:03:43;;;;;;;3.45;3.15;;;;;;;;;;5018793;28;20377;-81
2022/07/12 00:06:08;;;;;;;3.97;2.72;;;;;;;;;;5015269;28;20060;-78
2022/07/12 00:08:33;;;;;;;3.88;3.30;;;;;;;;;;4999754;28;20033;-79
2022/07/12 00:10:59;;;;;;;4.07;3.65;;;;;;;;;;5004444;28;20037;-79
2022/07/12 00:13:24;;;;;;;4.70;3.72;;;;;;;;;;5016573;28;20398;-79
2022/07/12 00:15:49;;;;;;;3.97;3.10;;;;;;;;;;4996818;28;20076;-79
2022/07/12 00:18:15;;;;;;;4.82;3.97;;;;;;;;;;5002698;28;20040;-80
2022/07/12 00:20:40;;;;;;;4.50;4.07;;;;;;;;;;5015882;28;20018;-80
2022/07/12 00:23:05;;;;;;;4.73;3.60;;;;;;;;;;5006467;28;20702;-80
2022/07/12 00:25:30;;;;;;;5.70;3.85;;;;;;;;;;5017274;28;21073;-80
2022/07/12 00:27:55;;;;;;;5.00;4.38;;;;;;;;;;5000295;28;20041;-80
2022/07/12 00:30:21;;;;;;;5.47;3.75;;;;;;;;;;5001338;28;20041;-80
2022/07/12 00:32:47;;;;;;;5.60;4.00;;;;;;;;;;5016444;28;20505;-79
2022/07/12 00:35:19;;;;;;;6.43;4.80;;;;;;;;;;5000927;28;20029;-79
2022/07/12 00:37:44;;;;;;;4.93;4.43;;;;;;;;;;5015691;28;20054;-80
2022/07/12 00:40:10;;;;;;;4.57;3.85;;;;;;;;;;4999634;28;20030;-78
2022/07/12 00:42:35;;;;;;;4.45;4.00;;;;;;;;;;5014048;28;20478;-81
2022/07/12 00:45:02;;;;;;;6.28;4.45;;;;;;;;;;4995611;28;20033;-79
2022/07/12 00:47:32;;;;;;;4.30;3.78;;;;;;;;;;5016722;28;20038;-80
2022/07/12 00:50:01;;;;;;;5.25;4.00;;;;;;;;;;5015004;28;20049;-81
2022/07/12 00:52:26;;;;;;;5.05;4.55;;;;;;;;;;5019206;28;20155;-81
2022/07/12 00:54:52;;;;;;;4.45;4.03;;;;;;;;;;5006016;28;20030;-79
2022/07/12 00:57:18;;;;;;;6.25;4.82;;;;;;;;;;5005349;28;20018;-81
2022/07/12 00:59:44;;;;;;;5.43;4.30;;;;;;;;;;5001554;28;20037;-79
2022/07/12 01:02:09;;;;;;;6.38;4.30;;;;;;;;;;5017933;28;20482;-79
2022/07/12 01:04:35;;;;;;;6.00;4.30;;;;;;;;;;5023199;28;20144;-79
2022/07/12 01:07:00;;;;;;;5.10;4.47;;;;;;;;;;5001888;28;20145;-79
2022/07/12 01:09:29;;;;;;;6.55;4.65;;;;;;;;;;5003627;28;20211;-79
2022/07/12 01:11:54;;;;;;;4.53;3.80;;;;;;;;;;5004058;28;20508;-80
2022/07/12 01:14:22;;;;;;;4.93;4.05;;;;;;;;;;5004095;28;20120;-79
2022/07/12 01:16:48;;;;;;;4.55;4.10;;;;;;;;;;5004343;28;20117;-79
2022/07/12 01:19:19;;;;;;;4.45;4.05;;;;;;;;;;5005379;28;20533;-79
2022/07/12 01:21:46;;;;;;;4.13;3.73;;;;;;;;;;4997543;28;20474;-80
2022/07/12 01:24:12;;;;;;;5.05;3.88;;;;;;;;;;5000810;28;20283;-80
2022/07/12 01:26:38;;;;;;;5.72;4.20;;;;;;;;;;5003802;28;20022;-80
2022/07/12 01:29:04;;;;;;;5.30;3.92;;;;;;;;;;5004694;28;20433;-81
2022/07/12 01:31:30;;;;;;;5.38;4.30;;;;;;;;;;5002156;28;20052;-79
2022/07/12 01:33:57;;;;;;;4.90;4.15;;;;;;;;;;5003084;28;20624;-79
2022/07/12 01:36:22;;;;;;;6.00;4.63;;;;;;;;;;5002980;28;20502;-78
2022/07/12 01:38:50;;;;;;;5.53;4.45;;;;;;;;;;5002946;28;20029;-80
2022/07/12 01:41:19;;;;;;;5.40;4.00;;;;;;;;;;5001981;28;20037;-80
2022/07/12 01:43:44;;;;;;;5.55;4.10;;;;;;;;;;5002855;28;20030;-80
2022/07/12 01:46:09;;;;;;;5.18;4.18;;;;;;;;;;5001757;28;20040;-80
2022/07/12 01:48:34;;;;;;;4.97;3.78;;;;;;;;;;5001571;28;20034;-78
2022/07/12 01:50:59;;;;;;;4.88;4.40;;;;;;;;;;5021887;28;21387;-79
2022/07/12 01:53:25;;;;;;;4.47;3.97;;;;;;;;;;5002373;28;20038;-78
2022/07/12 01:55:50;;;;;;;4.72;3.90;;;;;;;;;;5006351;28;20381;-79
2022/07/12 01:58:16;;;;;;;4.40;4.00;;;;;;;;;;5002425;28;20550;-80
2022/07/12 02:00:42;;;;;;;4.10;3.70;;;;;;;;;;5001810;28;20036;-79
2022/07/12 02:03:07;;;;;;;4.70;3.47;;;;;;;;;;5006394;28;20041;-79
2022/07/12 02:05:32;;;;;;;4.20;3.50;;;;;;;;;;5012464;28;20052;-80
2022/07/12 02:07:58;;;;;;;4.25;3.85;;;;;;;;;;5023135;28;20033;-78
2022/07/12 02:10:23;;;;;;;3.88;3.20;;;;;;;;;;5007477;28;20025;-80
2022/07/12 02:12:49;;;;;;;4.03;3.58;;;;;;;;;;5025595;28;20040;-80
2022/07/12 02:15:14;;;;;;;3.72;3.38;;;;;;;;;;5004551;28;20477;-79
2022/07/12 02:17:39;;;;;;;4.05;3.65;;;;;;;;;;5020828;28;20485;-80
2022/07/12 02:20:05;;;;;;;3.72;3.10;;;;;;;;;;5025207;28;20033;-79
2022/07/12 02:22:30;;;;;;;3.20;2.75;;;;;;;;;;5005782;28;20091;-80
2022/07/12 02:24:55;;;;;;;3.53;2.58;;;;;;;;;;5024508;28;20043;-80
2022/07/12 02:27:20;;;;;;;4.70;2.95;;;;;;;;;;5018725;28;20709;-79
2022/07/12 02:29:46;;;;;;;3.40;2.53;;;;;;;;;;5018679;28;20037;-78
2022/07/12 02:32:11;;;;;;;2.95;2.65;;;;;;;;;;5018319;28;20021;-80
2022/07/12 02:34:36;;;;;;;3.15;2.85;;;;;;;;;;5023070;28;20470;-78
2022/07/12 02:37:02;;;;;;;4.55;2.40;;;;;;;;;;5017069;28;20031;-78
2022/07/12 02:39:27;;;;;;;2.92;2.20;;;;;;;;;;5021446;28;20771;-79
2022/07/12 02:41:53;;;;;;;3.80;2.03;;;;;;;;;;5020034;28;20472;-79
2022/07/12 02:44:18;;;;;;;2.63;2.08;;;;;;;;;;5023431;28;20112;-79
2022/07/12 02:46:43;;;;;;;2.67;2.47;;;;;;;;;;5019374;28;20027;-80
2022/07/12 02:49:09;;;;;;;2.47;2.03;;;;;;;;;;5005498;28;20017;-80
2022/07/12 02:51:34;;;;;;;3.63;2.47;;;;;;;;;;5003349;28;20037;-79
2022/07/12 02:53:59;;;;;;;1.63;1.52;;;;;;;;;;5019691;28;20068;-79
2022/07/12 02:56:25;;;;;;;2.00;1.80;;;;;;;;;;5023925;28;20021;-78
2022/07/12 02:58:50;;;;;;;2.30;1.63;;;;;;;;;;5006298;28;20021;-78
2022/07/12 03:01:15;;;;;;;2.10;1.80;;;;;;;;;;5019348;28;20033;-81
2022/07/12 03:03:41;;;;;;;1.92;1.83;;;;;;;;;;5022508;28;21122;-81
2022/07/12 03:06:07;;;;;;;2.55;2.33;;;;;;;;;;5022103;28;20049;-80
2022/07/12 03:08:33;;;;;;;2.25;2.05;;;;;;;;;;5004774;28;20030;-80
2022/07/12 03:10:59;;;;;;;2.40;2.20;;;;;;;;;;5023561;28;20030;-78
2022/07/12 03:13:25;;;;;;;2.30;1.83;;;;;;;;;;5018923;28;20037;-78
2022/07/12 03:15:50;;;;;;;2.28;2.08;;;;;;;;;;5002756;28;20033;-79
2022/07/12 03:18:15;;;;;;;2.97;1.95;;;;;;;;;;5022409;28;20021;-80
2022/07/12 03:20:41;;;;;;;2.00;1.80;;;;;;;;;;5004948;28;20025;-78
2022/07/12 03:23:06;;;;;;;2.65;2.00;;;;;;;;;;5021113;28;20107;-80
2022/07/12 03:25:31;;;;;;;2.75;2.30;;;;;;;;;;5019514;28;20111;-78
2022/07/12 03:27:57;;;;;;;2.80;2.28;;;;;;;;;;5003338;28;20268;-79
2022/07/12 03:30:22;;;;;;;7.38;2.83;;;;;;;;;;5000635;28;20033;-79
2022/07/12 03:32:47;;;;;;;3.38;2.90;;;;;;;;;;5000888;28;20040;-78
2022/07/12 03:35:13;;;;;;;3.13;2.83;;;;;;;;;;5020820;28;20118;-79
2022/07/12 03:37:47;;;;;;;2.83;2.60;;;;;;;;;;5022766;28;20022;-80
2022/07/12 03:40:13;;;;;;;2.63;2.40;;;;;;;;;;5022674;28;20025;-80
2022/07/12 03:42:38;;;;;;;4.78;2.47;;;;;;;;;;5021337;28;20108;-78
2022/07/12 03:45:04;;;;;;;2.67;2.40;;;;;;;;;;5000269;28;20128;-79
2022/07/12 03:47:31;;;;;;;2.88;2.25;;;;;;;;;;5022302;28;20033;-79
2022/07/12 03:49:56;;;;;;;2.58;2.38;;;;;;;;;;5021932;28;20028;-80
2022/07/12 03:52:22;;;;;;;3.15;2.80;;;;;;;;;;5022427;28;20405;-80
2022/07/12 03:54:47;;;;;;;2.80;2.50;;;;;;;;;;5001626;28;20086;-79
2022/07/12 03:57:15;;;;;;;2.90;2.63;;;;;;;;;;5024386;28;20116;-80
2022/07/12 03:59:41;;;;;;;3.35;3.05;;;;;;;;;;5021042;28;20297;-80
2022/07/12 04:02:06;;;;;;;4.82;3.13;;;;;;;;;;4999638;28;20022;-78
2022/07/12 04:04:31;;;;;;;3.20;2.90;;;;;;;;;;5021428;28;20029;-80
2022/07/12 04:06:56;;;;;;;4.30;3.58;;;;;;;;;;5020516;28;20076;-79
2022/07/12 04:09:22;;;;;;;4.57;3.58;;;;;;;;;;5004316;28;20025;-79
2022/07/12 04:11:50;;;;;;;5.03;4.10;;;;;;;;;;5019125;28;20025;-81
2022/07/12 04:14:15;;;;;;;5.45;3.70;;;;;;;;;;5007164;28;20116;-79
2022/07/12 04:16:44;;;;;;;4.70;3.75;;;;;;;;;;5022861;28;20116;-79
2022/07/12 04:19:11;;;;;;;5.13;3.65;;;;;;;;;;5019408;28;20096;-79
2022/07/12 04:21:36;;;;;;;5.57;4.03;;;;;;;;;;5002387;28;20033;-80
2022/07/12 04:24:02;;;;;;;4.32;3.88;;;;;;;;;;5006255;28;20037;-78
2022/07/12 04:26:27;;;;;;;8.15;5.15;;;;;;;;;;5006747;28;20037;-78
2022/07/12 04:28:52;;;;;;;5.28;4.78;;;;;;;;;;5019252;28;20030;-80
2022/07/12 04:31:17;;;;;;;4.85;4.38;;;;;;;;;;5023951;28;20029;-80
2022/07/12 04:33:42;;;;;;;7.30;4.35;;;;;;;;;;5009135;28;20034;-80
2022/07/12 04:36:08;;;;;;;6.20;5.13;;;;;;;;;;5008141;28;20440;-80
2022/07/12 04:38:33;;;;;;;5.10;4.57;;;;;;;;;;5025667;28;20291;-80
2022/07/12 04:40:58;;;;;;;5.50;4.60;;;;;;;;;;5019837;28;20060;-80
2022/07/12 04:43:26;;;;;;;4.82;4.32;;;;;;;;;;5009142;28;20212;-80
2022/07/12 04:45:51;;;;;;;6.38;5.03;;;;;;;;;;5005882;28;20037;-79
2022/07/12 04:48:20;;;;;;;4.82;4.32;;;;;;;;;;5025466;28;20083;-80
2022/07/12 04:50:45;;;;;;;5.47;4.53;;;;;;;;;;5021809;28;20454;-80
2022/07/12 04:53:10;;;;;;;5.75;4.60;;;;;;;;;;5026651;28;20084;-80
2022/07/12 04:55:36;;;;;;;6.40;5.63;;;;;;;;;;5026762;28;20049;-79
2022/07/12 04:58:02;;;;;;;7.30;6.57;;;;;;;;;;5000951;28;20032;-80
2022/07/12 05:00:28;;;;;;;8.50;6.53;;;;;;;;;;5020106;28;20103;-79
2022/07/12 05:02:53;;;;;;;6.85;5.68;;;;;;;;;;5012803;28;20042;-79
2022/07/12 05:05:21;;;;;;;9.38;7.88;;;;;;;;;;5024418;28;20041;-79
2022/07/12 05:07:47;;;;;;;7.95;6.88;;;;;;;;;;5021898;28;20041;-80
2022/07/12 05:10:12;;;;;;;9.70;7.97;;;;;;;;;;5021468;28;20144;-79
2022/07/12 05:12:37;;;;;;;10.32;7.35;;;;;;;;;;5018430;28;20025;-79
2022/07/12 05:15:03;;;;;;;9.43;7.90;;;;;;;;;;5004990;28;20026;-80
2022/07/12 05:17:29;;;;;;;10.02;7.57;;;;;;;;;;5019037;28;20558;-80
2022/07/12 05:19:55;;;;;;;9.57;7.70;;;;;;;;;;5022023;28;20108;-79
2022/07/12 05:22:20;;;;;;;8.38;6.88;;;;;;;;;;5006485;28;20037;-80
2022/07/12 05:24:45;;;;;;;9.07;7.60;;;;;;;;;;5026297;28;20040;-80
2022/07/12 05:27:11;;;;;;;9.10;8.10;;;;;;;;;;5023282;28;20440;-80
2022/07/12 05:29:36;;;;;;;9.25;7.85;;;;;;;;;;5023704;28;20362;-80
2022/07/12 05:32:05;;;;;;;8.87;6.57;;;;;;;;;;5022210;28;20017;-80
2022/07/12 05:34:30;;;;;;;10.18;7.30;;;;;;;;;;5018192;28;20786;-79
2022/07/12 05:36:59;;;;;;;9.88;6.95;;;;;;;;;;5021178;28;20131;-78
2022/07/12 05:39:27;;;;;;;10.52;7.20;;;;;;;;;;5001120;28;20021;-79
2022/07/12 05:41:52;;;;;;;8.65;7.22;;;;;;;;;;5017588;28;20556;-79
2022/07/12 05:44:18;;;;;;;12.15;7.57;;;;;;;;;;4998618;28;20117;-79
2022/07/12 05:46:44;;;;;;;9.27;7.32;;;;;;;;;;4995968;28;20035;-79
2022/07/12 05:49:09;;;;;;;9.85;7.72;;;;;;;;;;5018898;28;20034;-79
2022/07/12 05:54:18;;;;;;;9.70;7.93;;;;;;;;;;5016816;28;20828;-79
2022/07/12 05:56:43;;;;;;;7.95;7.07;;;;;;;;;;5024089;28;20021;-79
2022/07/12 05:59:09;;;;;;;3.58;1.50;;;;;;;;;;5022596;28;20029;-81
2022/07/12 06:01:35;;;;;;;7.25;6.55;;;;;;;;;;5009231;28;20026;-81
2022/07/12 06:04:03;;;;;;;7.95;6.70;;;;;;;;;;4993323;28;20309;-80
2022/07/12 06:06:28;;;;;;;5.57;4.15;;;;;;;;;;4977841;28;1073378;-80
2022/07/12 06:08:54;;;;;;;6.55;4.80;;;;;;;;;;5021338;28;20034;-85
2022/07/12 06:11:20;;;;;;;7.65;5.38;;;;;;;;;;5021259;28;20022;-87
2022/07/12 06:13:45;;;;;;;9.35;6.20;;;;;;;;;;5021141;28;20469;-78
2022/07/12 06:16:11;;;;;;;7.22;4.68;;;;;;;;;;5009888;28;20032;-80
2022/07/12 06:18:37;;;;;;;9.45;5.72;;;;;;;;;;5016306;28;20029;-80
2022/07/12 06:21:02;;;;;;;7.35;4.18;;;;;;;;;;5021748;28;20091;-82
2022/07/12 06:23:27;;;;;;;8.93;6.55;;;;;;;;;;5012098;28;20488;-79
2022/07/12 06:25:52;;;;;;;7.67;6.37;;;;;;;;;;5016070;28;20768;-82
2022/07/12 06:28:18;;;;;;;9.35;6.53;;;;;;;;;;5014867;28;20381;-82
2022/07/12 06:30:43;;;;;;;7.70;4.72;;;;;;;;;;4999416;28;20141;-80
2022/07/12 06:33:08;;;;;;;10.10;6.68;;;;;;;;;;5021189;28;20024;-81
2022/07/12 06:35:34;;;;;;;5.32;4.13;;;;;;;;;;5002138;28;20026;-82
2022/07/12 06:37:59;;;;;;;4.72;3.90;;;;;;;;;;5019201;28;20033;-80
2022/07/12 06:40:24;;;;;;;6.85;4.28;;;;;;;;;;5021474;28;21472;-81
2022/07/12 06:42:50;;;;;;;5.93;4.10;;;;;;;;;;5018380;28;20029;-82
2022/07/12 06:45:15;;;;;;;7.10;4.28;;;;;;;;;;5022060;28;20033;-80
2022/07/12 06:47:41;;;;;;;8.77;6.63;;;;;;;;;;4997643;28;20033;-80
2022/07/12 06:50:09;;;;;;;5.95;5.18;;;;;;;;;;5000815;28;20048;-81
2022/07/12 06:52:35;;;;;;;7.95;6.28;;;;;;;;;;5023788;28;20462;-81
2022/07/12 06:55:01;;;;;;;4.28;3.80;;;;;;;;;;5009016;28;20033;-79
2022/07/12 06:57:27;;;;;;;7.10;6.32;;;;;;;;;;4999420;28;20397;-79
2022/07/12 06:59:52;;;;;;;5.93;3.88;;;;;;;;;;5022100;28;20082;-82
2022/07/12 07:02:17;;;;;;;6.40;5.07;;;;;;;;;;5002167;28;20046;-81
2022/07/12 07:04:45;;;;;;;5.50;4.45;;;;;;;;;;5025252;28;20033;-81
2022/07/12 07:07:14;;;;;;;6.95;5.45;;;;;;;;;;5022678;28;20809;-79
2022/07/12 07:09:39;;;;;;;4.35;3.00;;;;;;;;;;5026360;28;20024;-80
2022/07/12 07:12:05;;;;;;;4.43;3.28;;;;;;;;;;5020638;28;20987;-80
2022/07/12 07:14:30;;;;;;;3.08;2.83;;;;;;;;;;5023271;28;20034;-81
2022/07/12 07:16:55;;;;;;;2.50;2.30;;;;;;;;;;5019781;28;20444;-81
2022/07/12 07:19:22;;;;;;;5.38;4.30;;;;;;;;;;5025070;28;20424;-79
2022/07/12 07:21:47;;;;;;;4.35;3.28;;;;;;;;;;5015828;28;20025;-81
2022/07/12 07:24:15;;;;;;;5.97;4.97;;;;;;;;;;5020538;28;20891;-81
2022/07/12 07:26:40;;;;;;;6.07;5.40;;;;;;;;;;5016389;28;20033;-79
2022/07/12 07:31:52;;;;;;;4.38;2.95;;;;;;;;;;5018955;28;20095;-81
2022/07/12 07:34:21;;;;;;;4.90;3.05;;;;;;;;;;5021574;28;20481;-79
2022/07/12 07:36:50;;;;;;;4.43;4.03;;;;;;;;;;5027145;28;20100;-79
2022/07/12 07:39:18;;;;;;;3.78;3.38;;;;;;;;;;5023833;28;20083;-80
2022/07/12 07:41:43;;;;;;;4.93;3.88;;;;;;;;;;5018882;28;20075;-81
2022/07/12 07:44:09;;;;;;;5.78;4.63;;;;;;;;;;5020255;28;20709;-79
2022/07/12 07:46:34;;;;;;;6.75;4.95;;;;;;;;;;5002011;28;20405;-79
2022/07/12 07:48:59;;;;;;;5.32;4.13;;;;;;;;;;5024173;28;20041;-79
2022/07/12 07:51:25;;;;;;;3.92;2.65;;;;;;;;;;5025278;28;20034;-80
2022/07/12 07:53:53;;;;;;;4.55;3.83;;;;;;;;;;5004143;28;20499;-80
2022/07/12 07:56:18;;;;;;;5.00;2.80;;;;;;;;;;5020077;28;20028;-79
2022/07/12 07:58:43;;;;;;;2.88;2.53;;;;;;;;;;5020823;28;20629;-79
2022/07/12 08:01:09;;;;;;;4.82;4.32;;;;;;;;;;5017618;28;20056;-81
2022/07/12 08:03:34;;;;;;;5.22;4.72;;;;;;;;;;5003006;28;20096;-79
2022/07/12 08:06:00;;;;;;;7.60;4.13;;;;;;;;;;5024251;28;20068;-79
2022/07/12 08:08:25;;;;;;;2.80;2.60;;;;;;;;;;5024363;28;20896;-81
2022/07/12 08:10:51;;;;;;;6.32;5.32;;;;;;;;;;5020825;28;20283;-79
2022/07/12 08:13:16;;;;;;;5.10;4.60;;;;;;;;;;4998113;28;20112;-81
2022/07/12 08:15:42;;;;;;;6.03;4.22;;;;;;;;;;5021289;28;20099;-80
2022/07/12 08:18:07;;;;;;;6.15;3.22;;;;;;;;;;5003233;28;20022;-78
2022/07/12 08:20:32;;;;;;;5.20;4.70;;;;;;;;;;5022491;28;20032;-79
2022/07/12 08:22:57;;;;;;;5.30;3.00;;;;;;;;;;5017946;28;20340;-78
2022/07/12 08:25:23;;;;;;;4.13;3.78;;;;;;;;;;5017662;28;20732;-81
2022/07/12 08:27:48;;;;;;;5.28;4.50;;;;;;;;;;5000911;28;20476;-79
2022/07/12 08:30:14;;;;;;;4.60;3.30;;;;;;;;;;5022607;28;20033;-81
2022/07/12 08:32:43;;;;;;;6.80;4.93;;;;;;;;;;5023479;28;20281;-79
2022/07/12 08:35:08;;;;;;;6.82;3.60;;;;;;;;;;5006711;28;20030;-79
2022/07/12 08:37:34;;;;;;;5.43;4.07;;;;;;;;;;5004646;28;20052;-79
2022/07/12 08:39:59;;;;;;;4.05;3.53;;;;;;;;;;4997963;28;20052;-80
2022/07/12 08:42:24;;;;;;;3.38;2.10;;;;;;;;;;5026675;28;20022;-82
2022/07/12 08:44:58;;;;;;;3.90;1.60;;;;;;;;;;4999938;28;20033;-81
2022/07/12 08:47:23;;;;;;;4.78;3.75;;;;;;;;;;5028478;28;20281;-82
2022/07/12 08:50:07;;;;;;;4.55;4.13;;;;;;;;;;5022393;28;20025;-81
2022/07/12 08:52:32;;;;;;;8.85;4.93;;;;;;;;;;5001203;28;20026;-81
2022/07/12 08:54:57;;;;;;;3.83;3.53;;;;;;;;;;5017323;28;20053;-79
2022/07/12 08:57:32;;;;;;;4.65;4.18;;;;;;;;;;5020560;28;20362;-82
2022/07/12 08:59:58;;;;;;;4.25;2.83;;;;;;;;;;5023886;28;20413;-81
2022/07/12 09:02:24;;;;;;;3.72;2.80;;;;;;;;;;5020974;28;20044;-81
2022/07/12 09:05:05;;;;;;;6.43;3.35;;;;;;;;;;5011313;28;20052;-81
2022/07/12 09:07:34;;;;;;;3.90;3.53;;;;;;;;;;5020119;28;20080;-80
2022/07/12 09:10:03;;;;;;;4.65;3.20;;;;;;;;;;5024113;28;20394;-82
2022/07/12 09:12:28;;;;;;;3.13;2.83;;;;;;;;;;5031418;28;20385;-82
2022/07/12 09:14:53;;;;;;;3.97;3.50;;;;;;;;;;5012393;28;20033;-80
2022/07/12 09:17:21;;;;;;;5.50;4.00;;;;;;;;;;5034656;28;20440;-78
2022/07/12 09:19:57;;;;;;;3.60;1.52;;;;;;;;;;5024359;28;20048;-82
2022/07/12 09:22:22;;;;;;;8.40;2.20;;;;;;;;;;5024947;28;20048;-80
2022/07/12 09:24:47;;;;;;;20.77;5.03;;;;;;;;;;5024717;28;20052;-81
2022/07/12 09:27:13;;;;;;;8.57;3.90;;;;;;;;;;5027249;28;20030;-82
2022/07/12 09:29:48;;;;;;;7.03;3.17;;;;;;;;;;5028776;28;20025;-80
2022/07/12 09:37:42;;;;;;;8.70;3.60;;;;;;;;;;5031845;28;20067;-81
2022/07/12 09:40:08;;;;;;;8.82;3.17;;;;;;;;;;5025001;28;20124;-79
2022/07/12 09:42:34;;;;;;;4.60;3.38;;;;;;;;;;5022780;28;20029;-81
2022/07/12 09:45:00;;;;;;;4.00;2.40;;;;;;;;;;5008217;28;20030;-78
2022/07/12 09:47:26;;;;;;;5.15;3.55;;;;;;;;;;5027479;28;20481;-77
2022/07/12 09:49:52;;;;;;;7.18;2.70;;;;;;;;;;5031383;28;20032;-80
2022/07/12 09:52:21;;;;;;;5.93;3.10;;;;;;;;;;5015396;28;20544;-79
2022/07/12 09:54:49;;;;;;;5.95;3.97;;;;;;;;;;5021518;28;20722;-79
2022/07/12 09:57:31;;;;;;;4.20;2.95;;;;;;;;;;5023610;28;20030;-79
2022/07/12 10:00:00;;;;;;;2.88;2.50;;;;;;;;;;5004170;28;20030;-79
2022/07/12 10:02:26;;;;;;;2.88;2.00;;;;;;;;;;5023530;28;20033;-80
2022/07/12 10:04:52;;;;;;;3.55;3.25;;;;;;;;;;5022039;28;20029;-79
2022/07/12 10:07:17;;;;;;;5.20;2.90;;;;;;;;;;5021549;28;20531;-78
2022/07/12 10:09:44;;;;;;;4.78;2.70;;;;;;;;;;5023393;28;20033;-79
2022/07/12 10:12:10;;;;;;;3.55;3.20;;;;;;;;;;5025962;28;20037;-79
2022/07/12 10:14:36;;;;;;;2.75;2.20;;;;;;;;;;5023295;28;20040;-79
2022/07/12 10:17:03;;;;;;;4.63;2.80;;;;;;;;;;5023082;28;20051;-79
2022/07/12 10:19:31;;;;;;;3.80;2.40;;;;;;;;;;5001651;28;20018;-79
2022/07/12 10:21:57;;;;;;;2.90;2.60;;;;;;;;;;5025644;28;20052;-79
2022/07/12 10:24:41;;;;;;;6.68;2.10;;;;;;;;;;5022897;28;20195;-78
2022/07/12 10:27:15;;;;;;;4.43;3.00;;;;;;;;;;5021613;28;20028;-79
2022/07/12 10:29:44;;;;;;;4.45;3.65;;;;;;;;;;5022653;28;20160;-79
2022/07/12 10:32:26;;;;;;;4.72;3.50;;;;;;;;;;5023545;28;20021;-77
2022/07/12 10:34:57;;;;;;;3.10;2.33;;;;;;;;;;5003323;28;20029;-79
2022/07/12 10:37:22;;;;;;;4.55;2.33;;;;;;;;;;5010666;28;20029;-80
2022/07/12 10:40:06;;;;;;;3.47;2.50;;;;;;;;;;5025697;28;20596;-81
2022/07/12 10:42:31;;;;;;;5.18;3.30;;;;;;;;;;5027737;28;20045;-81
2022/07/12 10:45:08;;;;;;;3.17;2.40;;;;;;;;;;5003833;28;20034;-81
2022/07/12 10:47:52;;;;;;;3.92;1.90;;;;;;;;;;5025553;28;20862;-80
2022/07/12 10:50:17;;;;;;;2.40;2.05;;;;;;;;;;5001429;28;20095;-81
2022/07/12 10:52:43;;;;;;;2.65;1.92;;;;;;;;;;5014832;28;20235;-78
2022/07/12 10:55:14;;;;;;;3.17;2.08;;;;;;;;;;5016740;28;20369;-78
2022/07/12 10:57:53;;;;;;;2.17;1.98;;;;;;;;;;5023595;28;20057;-78
2022/07/12 11:00:23;;;;;;;5.28;1.70;;;;;;;;;;5020046;28;20033;-78
2022/07/12 11:02:48;;;;;;;2.35;2.15;;;;;;;;;;4998785;28;20605;-78
2022/07/12 11:05:14;;;;;;;2.92;1.88;;;;;;;;;;5019977;28;20053;-80
2022/07/12 11:07:39;;;;;;;2.55;1.85;;;;;;;;;;5024979;28;20036;-78
2022/07/12 11:10:05;;;;;;;1.70;1.60;;;;;;;;;;5007122;28;20029;-78
2022/07/12 11:12:30;;;;;;;4.35;2.05;;;;;;;;;;5001723;28;20025;-78
2022/07/12 11:14:57;;;;;;;2.17;1.98;;;;;;;;;;5022164;28;20835;-78
2022/07/12 11:17:27;;;;;;;2.60;2.20;;;;;;;;;;5022765;28;20855;-81
2022/07/12 11:20:06;;;;;;;3.00;2.03;;;;;;;;;;5005189;28;20096;-78
2022/07/12 11:22:31;;;;;;;1.77;1.67;;;;;;;;;;5018483;28;20025;-80
2022/07/12 11:24:57;;;;;;;2.53;1.63;;;;;;;;;;5020872;28;21041;-80
2022/07/12 11:27:23;;;;;;;1.98;1.75;;;;;;;;;;5022402;28;20045;-79
2022/07/12 11:30:00;;;;;;;2.22;1.92;;;;;;;;;;5018453;28;20036;-79
2022/07/12 11:32:35;;;;;;;3.13;2.42;;;;;;;;;;5021326;28;20053;-80
2022/07/12 11:35:01;;;;;;;2.63;2.00;;;;;;;;;;5016617;28;20661;-76
2022/07/12 11:37:26;;;;;;;3.72;1.90;;;;;;;;;;5020472;28;20382;-79
2022/07/12 11:39:51;;;;;;;2.57;1.80;;;;;;;;;;5017539;28;20430;-79
2022/07/12 11:42:17;;;;;;;3.08;1.98;;;;;;;;;;5021384;28;20275;-78
2022/07/12 11:44:43;;;;;;;1.80;1.67;;;;;;;;;;5002236;28;20030;-78
2022/07/12 11:47:08;;;;;;;2.42;1.83;;;;;;;;;;5003249;28;20029;-77
2022/07/12 11:49:34;;;;;;;2.33;2.15;;;;;;;;;;5001633;28;20369;-77
2022/07/12 11:51:59;;;;;;;5.50;1.70;;;;;;;;;;5024849;28;20026;-78
2022/07/12 11:54:25;;;;;;;2.45;1.60;;;;;;;;;;5020329;28;20041;-77
2022/07/12 11:57:03;;;;;;;2.22;1.80;;;;;;;;;;5026856;28;20559;-78
2022/07/12 11:59:29;;;;;;;2.03;1.65;;;;;;;;;;5025585;28;20045;-77
2022/07/12 12:02:07;;;;;;;1.60;1.50;;;;;;;;;;5022294;28;20064;-79
2022/07/12 12:04:43;;;;;;;2.45;1.65;;;;;;;;;;5024197;28;20801;-77
2022/07/12 12:07:15;;;;;;;1.60;1.30;;;;;;;;;;5024986;28;20473;-78
2022/07/12 12:09:59;;;;;;;1.42;1.25;;;;;;;;;;5018831;28;20025;-79
2022/07/12 12:12:25;;;;;;;1.63;1.52;;;;;;;;;;5024097;28;20107;-78
2022/07/12 12:14:50;;;;;;;1.58;1.25;;;;;;;;;;5015030;28;20025;-78
2022/07/12 12:17:15;;;;;;;1.70;1.60;;;;;;;;;;5023032;28;20475;-78
2022/07/12 12:19:43;;;;;;;1.90;1.70;;;;;;;;;;5021085;28;20025;-78
2022/07/12 12:22:44;;;;;;;1.70;1.60;;;;;;;;;;5022135;28;20329;-78
2022/07/12 12:25:18;;;;;;;2.85;1.48;;;;;;;;;;4923075;29;20046;-78
2022/07/12 12:27:48;;;;;;;2.42;2.03;;;;;;;;;;5011310;28;20033;-78
2022/07/12 12:30:14;;;;;;;2.97;1.50;;;;;;;;;;5024851;28;20076;-78
2022/07/12 12:32:43;;;;;;;3.63;2.20;;;;;;;;;;5019971;28;20104;-78
2022/07/12 12:35:08;;;;;;;2.05;1.45;;;;;;;;;;5022208;28;20096;-78
2022/07/12 12:37:34;;;;;;;2.17;1.52;;;;;;;;;;5005892;28;20116;-78
2022/07/12 12:39:59;;;;;;;2.60;1.60;;;;;;;;;;5020818;28;20024;-79
2022/07/12 12:42:24;;;;;;;2.10;1.60;;;;;;;;;;5008126;28;20030;-78
2022/07/12 12:44:50;;;;;;;2.10;1.60;;;;;;;;;;5023376;28;20020;-77
2022/07/12 12:47:30;;;;;;;1.50;1.40;;;;;;;;;;5018346;28;20119;-77
2022/07/12 12:49:57;;;;;;;1.70;1.40;;;;;;;;;;5006235;28;20033;-78
2022/07/12 12:52:22;;;;;;;3.33;1.52;;;;;;;;;;5003939;28;20022;-78
2022/07/12 12:54:48;;;;;;;1.90;1.48;;;;;;;;;;5005771;28;20036;-79
2022/07/12 12:57:13;;;;;;;3.40;1.58;;;;;;;;;;5022833;28;20079;-77
2022/07/12 12:59:38;;;;;;;2.28;1.58;;;;;;;;;;5027710;28;20421;-79
2022/07/12 13:02:04;;;;;;;3.22;2.33;;;;;;;;;;5022403;28;20094;-78
2022/07/12 13:04:30;;;;;;;2.10;1.67;;;;;;;;;;5009384;28;20473;-78
2022/07/12 13:06:56;;;;;;;2.15;1.50;;;;;;;;;;5004307;28;20095;-79
2022/07/12 13:09:21;;;;;;;2.65;1.77;;;;;;;;;;5010098;28;20430;-78
2022/07/12 13:11:47;;;;;;;2.40;1.42;;;;;;;;;;5022294;28;20507;-79
2022/07/12 13:14:12;;;;;;;3.45;1.85;;;;;;;;;;5027856;28;20033;-78
2022/07/12 13:16:38;;;;;;;3.25;1.70;;;;;;;;;;5022992;28;20405;-78
2022/07/12 13:19:03;;;;;;;2.17;2.08;;;;;;;;;;5024974;28;20444;-78
2022/07/12 13:21:28;;;;;;;3.03;1.80;;;;;;;;;;5026155;28;20053;-78
2022/07/12 13:23:54;;;;;;;6.13;1.85;;;;;;;;;;5007437;28;20131;-79
2022/07/12 13:26:22;;;;;;;3.33;1.83;;;;;;;;;;5027055;28;20508;-79
2022/07/12 13:28:47;;;;;;;4.10;2.35;;;;;;;;;;5007954;28;20037;-80
2022/07/12 13:31:12;;;;;;;6.68;1.85;;;;;;;;;;5025231;28;20037;-78
2022/07/12 13:33:38;;;;;;;2.50;2.00;;;;;;;;;;5030505;28;20025;-79
2022/07/12 13:36:03;;;;;;;3.27;1.83;;;;;;;;;;5006706;28;20278;-79
2022/07/12 13:38:29;;;;;;;2.13;1.92;;;;;;;;;;5024526;28;20283;-80
2022/07/12 13:40:54;;;;;;;2.25;2.05;;;;;;;;;;5001451;28;20093;-79
2022/07/12 13:43:19;;;;;;;3.65;2.20;;;;;;;;;;5023607;28;20057;-79
2022/07/12 13:45:49;;;;;;;2.70;2.03;;;;;;;;;;5006653;28;20041;-80
2022/07/12 13:48:15;;;;;;;2.20;1.95;;;;;;;;;;5022212;28;20773;-79
2022/07/12 13:50:40;;;;;;;2.70;1.83;;;;;;;;;;5025580;28;20021;-80
2022/07/12 13:53:07;;;;;;;2.85;1.65;;;;;;;;;;5018324;28;20042;-79
2022/07/12 13:55:32;;;;;;;3.05;1.75;;;;;;;;;;5023460;28;20018;-79
2022/07/12 13:57:57;;;;;;;2.78;1.40;;;;;;;;;;5023024;28;20585;-78
2022/07/12 14:00:26;;;;;;;3.17;1.60;;;;;;;;;;5025170;28;20066;-79
2022/07/12 14:02:52;;;;;;;2.33;1.95;;;;;;;;;;5024709;28;20116;-79
2022/07/12 14:05:19;;;;;;;2.95;1.60;;;;;;;;;;5000300;28;20137;-79
2022/07/12 14:07:48;;;;;;;1.77;1.50;;;;;;;;;;5003892;28;20084;-80
2022/07/12 14:10:13;;;;;;;2.03;1.77;;;;;;;;;;5014388;28;20126;-79
2022/07/12 14:12:38;;;;;;;3.40;1.63;;;;;;;;;;4994397;28;20859;-80
2022/07/12 14:15:35;;;;;;;1.58;1.48;;;;;;;;;;4998471;28;20022;-79
2022/07/12 14:18:00;;;;;;;1.80;1.70;;;;;;;;;;5011414;28;20516;-80
2022/07/12 14:20:25;;;;;;;2.33;2.00;;;;;;;;;;5008788;28;20176;-80
2022/07/12 14:22:56;;;;;;;2.17;1.60;;;;;;;;;;5005309;28;20163;-80
2022/07/12 14:25:21;;;;;;;3.40;1.52;;;;;;;;;;5008482;28;20034;-80
2022/07/12 14:27:46;;;;;;;4.05;1.67;;;;;;;;;;5003863;28;20026;-81
2022/07/12 14:30:13;;;;;;;5.53;2.10;;;;;;;;;;5008069;28;20398;-80
2022/07/12 14:32:38;;;;;;;3.00;1.85;;;;;;;;;;5001009;28;20881;-80
2022/07/12 14:35:05;;;;;;;2.63;1.48;;;;;;;;;;5016913;28;20021;-80
2022/07/12 14:37:30;;;;;;;2.95;2.20;;;;;;;;;;5019176;28;20125;-80
2022/07/12 14:39:56;;;;;;;2.55;2.00;;;;;;;;;;5003887;28;20097;-81
2022/07/12 14:42:24;;;;;;;2.13;1.92;;;;;;;;;;5018158;28;20029;-80
2022/07/12 14:44:49;;;;;;;5.13;2.03;;;;;;;;;;4994728;28;20018;-82
2022/07/12 14:47:14;;;;;;;1.67;1.55;;;;;;;;;;4996811;28;20264;-80
2022/07/12 14:49:40;;;;;;;3.70;1.90;;;;;;;;;;5002648;28;20010;-81
2022/07/12 14:52:08;;;;;;;2.05;1.70;;;;;;;;;;5015959;28;20034;-81